Big Bear Station Historical Data
Daily Summary for June 29, 2017 Units:  English    Metric   Both
Next Day »
Daily Weekly Monthly Yearly Custom
  High: Low: Average:
Temperature: 84.2 °F 45.0 °F 64.5 °F
Dew Point: 50.8 °F 22.4 °F 37.7 °F
Humidity: 68% 16% 40%
Wind Speed: 6.8mph 0.0mph 1.8mph
Wind Gust: -999.0mph - -
Wind- - WSW
Pressure: 30.23 in 30.16 in -
Precipitation: 0.00 in    
Historical Graphs
 
 
Tabular Data for June 29, 2017
Time Temperature Dew Point Pressure Wind Wind Speed Wind Gust Humidity Rainfall Rate (Hourly)
00:03 52.7 °F 25.1 °F 30.18 in Calm   -999.0 mph 34% 0 in
00:18 52.9 °F 25.3 °F 30.18 in Calm   -999.0 mph 34% 0 in
00:33 52.3 °F 26.1 °F 30.18 in Calm   -999.0 mph 36% 0 in
00:48 51.6 °F 28.7 °F 30.18 in Calm   -999.0 mph 41% 0 in
01:03 51.6 °F 29.8 °F 30.18 in Calm   -999.0 mph 43% 0 in
01:19 51.1 °F 32.6 °F 30.18 in Calm   -999.0 mph 49% 0 in
01:34 50.4 °F 32.9 °F 30.17 in Calm   -999.0 mph 51% 0 in
01:49 50.2 °F 33.2 °F 30.17 in Calm   -999.0 mph 52% 0 in
02:04 49.6 °F 35.4 °F 30.17 in Calm   -999.0 mph 58% 0 in
02:20 49.3 °F 35.1 °F 30.17 in Calm   -999.0 mph 58% 0 in
02:35 49.3 °F 34.3 °F 30.17 in Calm   -999.0 mph 56% 0 in
02:50 49.1 °F 24.6 °F 30.17 in Calm   -999.0 mph 38% 0 in
03:05 48.7 °F 31.4 °F 30.17 in Calm   -999.0 mph 51% 0 in
03:20 48.6 °F 34.9 °F 30.17 in Calm   -999.0 mph 59% 0 in
03:36 48.4 °F 36.8 °F 30.16 in Calm   -999.0 mph 64% 0 in
03:51 47.8 °F 33.3 °F 30.16 in Calm   -999.0 mph 57% 0 in
04:06 47.7 °F 31.4 °F 30.16 in South 2.2 mph -999.0 mph 53% 0 in
04:21 47.7 °F 32.3 °F 30.16 in South 1.7 mph -999.0 mph 55% 0 in
04:36 46.9 °F 32.9 °F 30.16 in Calm   -999.0 mph 58% 0 in
04:52 47.1 °F 31.8 °F 30.16 in South 1.7 mph -999.0 mph 55% 0 in
05:07 46.0 °F 26.4 °F 30.17 in SSE 2.2 mph -999.0 mph 46% 0 in
05:22 45.0 °F 23.8 °F 30.17 in Calm   -999.0 mph 43% 0 in
05:38 45.3 °F 26.8 °F 30.18 in South 2.2 mph -999.0 mph 48% 0 in
05:53 45.3 °F 22.4 °F 30.18 in South 2.2 mph -999.0 mph 40% 0 in
06:08 45.3 °F 23.5 °F 30.18 in Calm   -999.0 mph 42% 0 in
06:23 46.4 °F 27.8 °F 30.18 in South 1.7 mph -999.0 mph 48% 0 in
06:38 45.7 °F 30.0 °F 30.18 in Calm   -999.0 mph 54% 0 in
06:54 46.8 °F 31.5 °F 30.18 in Calm   -999.0 mph 55% 0 in
07:09 46.8 °F 31.5 °F 30.18 in Calm   -999.0 mph 55% 0 in
07:24 48.0 °F 31.7 °F 30.18 in Calm   -999.0 mph 53% 0 in
07:39 48.9 °F 38.4 °F 30.18 in Calm   -999.0 mph 67% 0 in
07:54 50.5 °F 40.3 °F 30.19 in Calm   -999.0 mph 68% 0 in
08:10 52.5 °F 41.5 °F 30.19 in NW 2.2 mph -999.0 mph 66% 0 in
08:25 56.3 °F 44.7 °F 30.19 in Calm   -999.0 mph 65% 0 in
08:40 57.7 °F 41.6 °F 30.19 in Calm   -999.0 mph 55% 0 in
08:55 59.7 °F 31.3 °F 30.19 in Calm   -999.0 mph 34% 0 in
09:10 63.3 °F 24.8 °F 30.19 in Calm   -999.0 mph 23% 0 in
09:26 68.5 °F 30.3 °F 30.19 in WNW 3.2 mph -999.0 mph 24% 0 in
09:41 71.1 °F 29.2 °F 30.19 in NW 2.7 mph -999.0 mph 21% 0 in
09:57 73.2 °F 32.1 °F 30.19 in NNE 3.7 mph -999.0 mph 22% 0 in
10:12 74.5 °F 30.8 °F 30.19 in NNW 3.2 mph -999.0 mph 20% 0 in
10:27 75.2 °F 28.8 °F 30.19 in WNW 3.7 mph -999.0 mph 18% 0 in
10:43 76.1 °F 26.6 °F 30.20 in NE 4.2 mph -999.0 mph 16% 0 in
10:58 76.3 °F 32.3 °F 30.20 in NW 5.3 mph -999.0 mph 20% 0 in
11:13 77.0 °F 34.1 °F 30.20 in NNE 2.7 mph -999.0 mph 21% 0 in
11:29 78.1 °F 38.4 °F 30.20 in NNW 4.2 mph -999.0 mph 24% 0 in
11:44 79.5 °F 36.1 °F 30.21 in NNW 4.2 mph -999.0 mph 21% 0 in
12:00 82.0 °F 37.0 °F 30.21 in NNW 3.7 mph -999.0 mph 20% 0 in
12:15 81.5 °F 39.0 °F 30.21 in NNW 6.3 mph -999.0 mph 22% 0 in
12:45 83.1 °F 39.1 °F 30.21 in West 3.7 mph -999.0 mph 21% 0 in
13:01 82.8 °F 40.1 °F 30.21 in SE 1.7 mph -999.0 mph 22% 0 in
13:16 82.6 °F 39.9 °F 30.21 in South 2.7 mph -999.0 mph 22% 0 in
13:31 81.9 °F 43.7 °F 30.21 in SSW 4.7 mph -999.0 mph 26% 0 in
13:47 82.6 °F 45.2 °F 30.21 in SE 3.2 mph -999.0 mph 27% 0 in
14:02 84.2 °F 46.6 °F 30.21 in NNW 4.7 mph -999.0 mph 27% 0 in
14:17 82.0 °F 47.5 °F 30.21 in NNW 1.7 mph -999.0 mph 30% 0 in
14:33 82.6 °F 48.0 °F 30.20 in WNW 1.7 mph -999.0 mph 30% 0 in
14:48 81.7 °F 49.0 °F 30.20 in WSW 3.7 mph -999.0 mph 32% 0 in
15:03 79.7 °F 48.9 °F 30.20 in NNE 3.2 mph -999.0 mph 34% 0 in
15:18 79.9 °F 49.0 °F 30.20 in WSW 3.2 mph -999.0 mph 34% 0 in
15:33 79.5 °F 49.5 °F 30.20 in NW 3.7 mph -999.0 mph 35% 0 in
15:49 80.1 °F 50.0 °F 30.20 in NW 5.3 mph -999.0 mph 35% 0 in
16:04 78.8 °F 49.6 °F 30.20 in West 2.2 mph -999.0 mph 36% 0 in
16:19 78.4 °F 50.0 °F 30.20 in South 6.8 mph -999.0 mph 37% 0 in
16:35 79.5 °F 50.2 °F 30.20 in NNW 4.2 mph -999.0 mph 36% 0 in
16:50 81.9 °F 50.8 °F 30.20 in NW 3.2 mph -999.0 mph 34% 0 in
17:05 81.9 °F 50.0 °F 30.20 in NNE 3.2 mph -999.0 mph 33% 0 in
17:20 82.8 °F 49.1 °F 30.20 in NW 4.2 mph -999.0 mph 31% 0 in
17:35 81.0 °F 50.0 °F 30.20 in West 3.2 mph -999.0 mph 34% 0 in
17:51 82.0 °F 49.2 °F 30.20 in South 2.2 mph -999.0 mph 32% 0 in
18:06 82.0 °F 47.5 °F 30.20 in NW 5.3 mph -999.0 mph 30% 0 in
18:21 80.8 °F 48.2 °F 30.20 in NW 4.2 mph -999.0 mph 32% 0 in
18:36 81.5 °F 43.3 °F 30.20 in Calm   -999.0 mph 26% 0 in
18:51 82.0 °F 42.7 °F 30.20 in NW 2.2 mph -999.0 mph 25% 0 in
19:07 80.4 °F 48.7 °F 30.20 in NNW 2.2 mph -999.0 mph 33% 0 in
19:22 75.2 °F 45.7 °F 30.20 in NW 4.2 mph -999.0 mph 35% 0 in
19:37 72.0 °F 45.7 °F 30.20 in WNW 3.7 mph -999.0 mph 39% 0 in
19:52 70.3 °F 46.1 °F 30.20 in NNW 4.2 mph -999.0 mph 42% 0 in
20:08 69.3 °F 44.6 °F 30.20 in North 1.1 mph -999.0 mph 41% 0 in
20:23 67.5 °F 41.7 °F 30.21 in SSE 3.7 mph -999.0 mph 39% 0 in
20:38 66.6 °F 39.5 °F 30.21 in East 2.7 mph -999.0 mph 37% 0 in
20:53 64.9 °F 39.3 °F 30.21 in South 1.7 mph -999.0 mph 39% 0 in
21:08 64.2 °F 38.7 °F 30.21 in Calm   -999.0 mph 39% 0 in
21:24 63.3 °F 37.9 °F 30.21 in Calm   -999.0 mph 39% 0 in
21:55 60.4 °F 37.8 °F 30.22 in Calm   -999.0 mph 43% 0 in
22:10 59.7 °F 37.2 °F 30.22 in Calm   -999.0 mph 43% 0 in
22:25 58.8 °F 36.3 °F 30.22 in Calm   -999.0 mph 43% 0 in
22:40 58.1 °F 36.3 °F 30.23 in Calm   -999.0 mph 44% 0 in
22:55 57.4 °F 36.8 °F 30.23 in Calm   -999.0 mph 46% 0 in
23:11 56.8 °F 38.9 °F 30.23 in Calm   -999.0 mph 51% 0 in
23:26 56.1 °F 39.2 °F 30.23 in Calm   -999.0 mph 53% 0 in
23:41 55.4 °F 39.5 °F 30.23 in Calm   -999.0 mph 55% 0 in
23:56 54.9 °F 36.6 °F 30.23 in Calm   -999.0 mph 50% 0 in
Big Bear CA Weather